sensor_id;sensor_type;location;lat;lon;timestamp;P1;durP1;ratioP1;P2;durP2;ratioP2
23181;SDS011;11759;51.282;6.642;2023-07-22T00:00:38;563.58;;;153.25;;
23181;SDS011;11759;51.282;6.642;2023-07-22T00:03:04;560.10;;;157.45;;
23181;SDS011;11759;51.282;6.642;2023-07-22T00:05:31;558.95;;;152.10;;
23181;SDS011;11759;51.282;6.642;2023-07-22T00:07:58;574.38;;;166.68;;
23181;SDS011;11759;51.282;6.642;2023-07-22T00:10:24;552.03;;;145.27;;
23181;SDS011;11759;51.282;6.642;2023-07-22T00:12:51;597.15;;;191.48;;
23181;SDS011;11759;51.282;6.642;2023-07-22T00:15:18;613.70;;;212.88;;
23181;SDS011;11759;51.282;6.642;2023-07-22T00:17:46;542.40;;;141.15;;
23181;SDS011;11759;51.282;6.642;2023-07-22T00:20:13;687.03;;;280.98;;
23181;SDS011;11759;51.282;6.642;2023-07-22T00:22:40;555.65;;;148.25;;
23181;SDS011;11759;51.282;6.642;2023-07-22T00:25:07;732.55;;;329.70;;
23181;SDS011;11759;51.282;6.642;2023-07-22T00:30:05;596.65;;;192.05;;
23181;SDS011;11759;51.282;6.642;2023-07-22T00:32:33;572.03;;;157.52;;
23181;SDS011;11759;51.282;6.642;2023-07-22T00:35:00;550.33;;;144.27;;
23181;SDS011;11759;51.282;6.642;2023-07-22T00:37:26;651.15;;;237.88;;
23181;SDS011;11759;51.282;6.642;2023-07-22T00:39:53;567.67;;;160.20;;
23181;SDS011;11759;51.282;6.642;2023-07-22T00:42:21;580.65;;;168.23;;
23181;SDS011;11759;51.282;6.642;2023-07-22T00:44:47;550.25;;;145.30;;
23181;SDS011;11759;51.282;6.642;2023-07-22T00:47:14;587.00;;;174.27;;
23181;SDS011;11759;51.282;6.642;2023-07-22T00:49:42;554.22;;;150.52;;
23181;SDS011;11759;51.282;6.642;2023-07-22T00:52:09;599.78;;;189.48;;
23181;SDS011;11759;51.282;6.642;2023-07-22T00:54:35;559.85;;;152.68;;
23181;SDS011;11759;51.282;6.642;2023-07-22T00:57:02;771.38;;;371.05;;
23181;SDS011;11759;51.282;6.642;2023-07-22T00:59:29;551.67;;;144.43;;
23181;SDS011;11759;51.282;6.642;2023-07-22T01:01:56;575.53;;;166.48;;
23181;SDS011;11759;51.282;6.642;2023-07-22T01:04:23;547.90;;;141.45;;
23181;SDS011;11759;51.282;6.642;2023-07-22T01:06:50;547.25;;;143.70;;
23181;SDS011;11759;51.282;6.642;2023-07-22T01:09:19;550.65;;;147.68;;
23181;SDS011;11759;51.282;6.642;2023-07-22T01:11:46;545.60;;;143.20;;
23181;SDS011;11759;51.282;6.642;2023-07-22T01:14:12;601.40;;;193.35;;
23181;SDS011;11759;51.282;6.642;2023-07-22T01:16:39;540.83;;;137.43;;
23181;SDS011;11759;51.282;6.642;2023-07-22T01:19:06;610.63;;;198.52;;
23181;SDS011;11759;51.282;6.642;2023-07-22T01:21:34;547.72;;;137.95;;
23181;SDS011;11759;51.282;6.642;2023-07-22T01:24:03;552.85;;;145.80;;
23181;SDS011;11759;51.282;6.642;2023-07-22T01:26:30;541.80;;;139.70;;
23181;SDS011;11759;51.282;6.642;2023-07-22T01:29:04;546.33;;;139.80;;
23181;SDS011;11759;51.282;6.642;2023-07-22T01:31:33;551.83;;;142.77;;
23181;SDS011;11759;51.282;6.642;2023-07-22T01:34:01;555.13;;;144.10;;
23181;SDS011;11759;51.282;6.642;2023-07-22T01:36:28;551.13;;;149.45;;
23181;SDS011;11759;51.282;6.642;2023-07-22T01:38:55;591.08;;;177.98;;
23181;SDS011;11759;51.282;6.642;2023-07-22T01:41:21;553.28;;;146.43;;
23181;SDS011;11759;51.282;6.642;2023-07-22T01:43:48;674.08;;;264.58;;
23181;SDS011;11759;51.282;6.642;2023-07-22T01:46:15;564.05;;;146.70;;
23181;SDS011;11759;51.282;6.642;2023-07-22T01:48:43;569.20;;;154.80;;
23181;SDS011;11759;51.282;6.642;2023-07-22T01:51:10;551.15;;;143.73;;
23181;SDS011;11759;51.282;6.642;2023-07-22T01:53:37;566.72;;;157.77;;
23181;SDS011;11759;51.282;6.642;2023-07-22T01:56:04;547.22;;;137.23;;
23181;SDS011;11759;51.282;6.642;2023-07-22T01:58:32;612.50;;;201.18;;
23181;SDS011;11759;51.282;6.642;2023-07-22T02:00:59;539.72;;;133.75;;
23181;SDS011;11759;51.282;6.642;2023-07-22T02:03:26;617.88;;;202.95;;
23181;SDS011;11759;51.282;6.642;2023-07-22T02:05:53;553.67;;;138.23;;
23181;SDS011;11759;51.282;6.642;2023-07-22T02:08:20;559.80;;;142.73;;
23181;SDS011;11759;51.282;6.642;2023-07-22T02:10:47;557.88;;;138.23;;
23181;SDS011;11759;51.282;6.642;2023-07-22T02:13:14;569.95;;;149.35;;
23181;SDS011;11759;51.282;6.642;2023-07-22T02:15:41;600.42;;;183.70;;
23181;SDS011;11759;51.282;6.642;2023-07-22T02:18:08;562.33;;;141.30;;
23181;SDS011;11759;51.282;6.642;2023-07-22T02:20:35;573.92;;;153.98;;
23181;SDS011;11759;51.282;6.642;2023-07-22T02:23:01;559.83;;;143.15;;
23181;SDS011;11759;51.282;6.642;2023-07-22T02:25:28;593.40;;;176.40;;
23181;SDS011;11759;51.282;6.642;2023-07-22T02:27:55;556.58;;;141.93;;
23181;SDS011;11759;51.282;6.642;2023-07-22T02:30:23;596.17;;;177.75;;
23181;SDS011;11759;51.282;6.642;2023-07-22T02:32:50;560.65;;;142.43;;
23181;SDS011;11759;51.282;6.642;2023-07-22T02:35:16;599.72;;;180.05;;
23181;SDS011;11759;51.282;6.642;2023-07-22T02:37:43;589.30;;;169.85;;
23181;SDS011;11759;51.282;6.642;2023-07-22T02:40:10;590.60;;;172.85;;
23181;SDS011;11759;51.282;6.642;2023-07-22T02:42:38;567.33;;;147.55;;
23181;SDS011;11759;51.282;6.642;2023-07-22T02:45:06;585.25;;;168.27;;
23181;SDS011;11759;51.282;6.642;2023-07-22T02:47:35;646.10;;;220.75;;
23181;SDS011;11759;51.282;6.642;2023-07-22T02:50:02;561.95;;;142.05;;
23181;SDS011;11759;51.282;6.642;2023-07-22T02:52:31;620.88;;;201.85;;
23181;SDS011;11759;51.282;6.642;2023-07-22T02:55:05;562.55;;;143.10;;
23181;SDS011;11759;51.282;6.642;2023-07-22T02:57:34;615.50;;;194.90;;
23181;SDS011;11759;51.282;6.642;2023-07-22T03:00:01;581.33;;;160.00;;
23181;SDS011;11759;51.282;6.642;2023-07-22T03:02:34;562.53;;;143.27;;
23181;SDS011;11759;51.282;6.642;2023-07-22T03:05:02;624.38;;;205.05;;
23181;SDS011;11759;51.282;6.642;2023-07-22T03:07:41;556.92;;;140.90;;
23181;SDS011;11759;51.282;6.642;2023-07-22T03:10:08;587.25;;;168.05;;
23181;SDS011;11759;51.282;6.642;2023-07-22T03:12:35;624.20;;;206.27;;
23181;SDS011;11759;51.282;6.642;2023-07-22T03:15:02;557.20;;;142.30;;
23181;SDS011;11759;51.282;6.642;2023-07-22T03:17:35;588.83;;;166.25;;
23181;SDS011;11759;51.282;6.642;2023-07-22T03:20:03;560.15;;;142.60;;
23181;SDS011;11759;51.282;6.642;2023-07-22T03:22:46;565.40;;;139.68;;
23181;SDS011;11759;51.282;6.642;2023-07-22T03:25:13;618.03;;;202.32;;
23181;SDS011;11759;51.282;6.642;2023-07-22T03:27:40;562.42;;;139.00;;
23181;SDS011;11759;51.282;6.642;2023-07-22T03:30:07;590.70;;;176.88;;
23181;SDS011;11759;51.282;6.642;2023-07-22T03:32:34;582.83;;;161.30;;
23181;SDS011;11759;51.282;6.642;2023-07-22T03:35:01;558.83;;;139.45;;
23181;SDS011;11759;51.282;6.642;2023-07-22T03:37:29;570.20;;;147.05;;
23181;SDS011;11759;51.282;6.642;2023-07-22T03:39:56;561.45;;;141.65;;
23181;SDS011;11759;51.282;6.642;2023-07-22T03:42:22;592.00;;;173.50;;
23181;SDS011;11759;51.282;6.642;2023-07-22T03:44:49;562.25;;;136.60;;
23181;SDS011;11759;51.282;6.642;2023-07-22T03:47:16;561.85;;;143.07;;
23181;SDS011;11759;51.282;6.642;2023-07-22T03:49:43;682.38;;;263.95;;
23181;SDS011;11759;51.282;6.642;2023-07-22T03:52:09;556.42;;;138.25;;
23181;SDS011;11759;51.282;6.642;2023-07-22T03:54:40;599.25;;;177.02;;
23181;SDS011;11759;51.282;6.642;2023-07-22T03:57:07;566.28;;;141.90;;
23181;SDS011;11759;51.282;6.642;2023-07-22T03:59:34;569.63;;;150.32;;
23181;SDS011;11759;51.282;6.642;2023-07-22T04:02:01;562.05;;;138.43;;
23181;SDS011;11759;51.282;6.642;2023-07-22T04:04:28;561.08;;;141.68;;
23181;SDS011;11759;51.282;6.642;2023-07-22T04:06:55;568.10;;;143.93;;
23181;SDS011;11759;51.282;6.642;2023-07-22T04:09:22;559.00;;;141.25;;
23181;SDS011;11759;51.282;6.642;2023-07-22T04:11:49;569.40;;;150.35;;
23181;SDS011;11759;51.282;6.642;2023-07-22T04:14:16;558.00;;;138.50;;
23181;SDS011;11759;51.282;6.642;2023-07-22T04:16:42;614.65;;;193.82;;
23181;SDS011;11759;51.282;6.642;2023-07-22T04:19:09;563.85;;;146.50;;
23181;SDS011;11759;51.282;6.642;2023-07-22T04:21:36;571.63;;;150.38;;
23181;SDS011;11759;51.282;6.642;2023-07-22T04:24:02;563.22;;;142.98;;
23181;SDS011;11759;51.282;6.642;2023-07-22T04:26:30;565.47;;;146.27;;
23181;SDS011;11759;51.282;6.642;2023-07-22T04:28:57;580.45;;;159.65;;
23181;SDS011;11759;51.282;6.642;2023-07-22T04:31:25;559.42;;;143.60;;
23181;SDS011;11759;51.282;6.642;2023-07-22T04:33:52;610.40;;;187.77;;
23181;SDS011;11759;51.282;6.642;2023-07-22T04:36:19;562.53;;;142.80;;
23181;SDS011;11759;51.282;6.642;2023-07-22T04:38:45;622.15;;;205.85;;
23181;SDS011;11759;51.282;6.642;2023-07-22T04:41:12;569.10;;;147.30;;
23181;SDS011;11759;51.282;6.642;2023-07-22T04:43:41;579.97;;;158.82;;
23181;SDS011;11759;51.282;6.642;2023-07-22T04:46:07;568.55;;;144.80;;
23181;SDS011;11759;51.282;6.642;2023-07-22T04:48:35;590.83;;;176.65;;
23181;SDS011;11759;51.282;6.642;2023-07-22T04:51:03;642.85;;;223.00;;
23181;SDS011;11759;51.282;6.642;2023-07-22T04:53:29;562.60;;;141.75;;
23181;SDS011;11759;51.282;6.642;2023-07-22T04:55:56;604.70;;;185.15;;
23181;SDS011;11759;51.282;6.642;2023-07-22T04:58:23;561.15;;;141.90;;
23181;SDS011;11759;51.282;6.642;2023-07-22T05:00:50;582.00;;;163.27;;
23181;SDS011;11759;51.282;6.642;2023-07-22T05:03:18;573.90;;;153.18;;
23181;SDS011;11759;51.282;6.642;2023-07-22T05:05:45;565.25;;;145.75;;
23181;SDS011;11759;51.282;6.642;2023-07-22T05:08:12;609.63;;;188.35;;
23181;SDS011;11759;51.282;6.642;2023-07-22T05:10:39;565.38;;;146.73;;
23181;SDS011;11759;51.282;6.642;2023-07-22T05:13:06;583.30;;;164.75;;
23181;SDS011;11759;51.282;6.642;2023-07-22T05:15:32;562.90;;;145.07;;
23181;SDS011;11759;51.282;6.642;2023-07-22T05:17:59;585.55;;;164.55;;
23181;SDS011;11759;51.282;6.642;2023-07-22T05:20:26;565.22;;;148.85;;
23181;SDS011;11759;51.282;6.642;2023-07-22T05:22:52;574.20;;;157.35;;
23181;SDS011;11759;51.282;6.642;2023-07-22T05:25:19;604.40;;;183.98;;
23181;SDS011;11759;51.282;6.642;2023-07-22T05:27:46;569.80;;;152.93;;
23181;SDS011;11759;51.282;6.642;2023-07-22T05:30:13;628.55;;;214.82;;
23181;SDS011;11759;51.282;6.642;2023-07-22T05:32:59;584.38;;;171.70;;
23181;SDS011;11759;51.282;6.642;2023-07-22T05:35:26;565.63;;;154.85;;
23181;SDS011;11759;51.282;6.642;2023-07-22T05:37:53;571.08;;;159.05;;
23181;SDS011;11759;51.282;6.642;2023-07-22T05:40:19;611.00;;;189.40;;
23181;SDS011;11759;51.282;6.642;2023-07-22T05:42:46;562.15;;;145.10;;
23181;SDS011;11759;51.282;6.642;2023-07-22T05:45:13;622.45;;;212.32;;
23181;SDS011;11759;51.282;6.642;2023-07-22T05:47:41;573.88;;;159.45;;
23181;SDS011;11759;51.282;6.642;2023-07-22T05:50:08;617.40;;;208.60;;
23181;SDS011;11759;51.282;6.642;2023-07-22T05:52:35;589.08;;;176.82;;
23181;SDS011;11759;51.282;6.642;2023-07-22T05:55:02;564.50;;;156.02;;
23181;SDS011;11759;51.282;6.642;2023-07-22T05:57:29;619.17;;;205.55;;
23181;SDS011;11759;51.282;6.642;2023-07-22T05:59:57;572.63;;;157.15;;
23181;SDS011;11759;51.282;6.642;2023-07-22T06:02:37;438.07;;;142.57;;
23181;SDS011;11759;51.282;6.642;2023-07-22T06:05:04;589.38;;;178.00;;
23181;SDS011;11759;51.282;6.642;2023-07-22T06:07:31;592.88;;;182.88;;
23181;SDS011;11759;51.282;6.642;2023-07-22T06:09:58;577.85;;;169.80;;
23181;SDS011;11759;51.282;6.642;2023-07-22T06:12:25;579.90;;;170.43;;
23181;SDS011;11759;51.282;6.642;2023-07-22T06:14:56;580.60;;;182.00;;
23181;SDS011;11759;51.282;6.642;2023-07-22T06:17:24;574.88;;;169.35;;
23181;SDS011;11759;51.282;6.642;2023-07-22T06:19:50;577.33;;;174.85;;
23181;SDS011;11759;51.282;6.642;2023-07-22T06:22:17;615.50;;;202.70;;
23181;SDS011;11759;51.282;6.642;2023-07-22T06:24:44;577.45;;;175.80;;
23181;SDS011;11759;51.282;6.642;2023-07-22T06:27:10;599.47;;;198.52;;
23181;SDS011;11759;51.282;6.642;2023-07-22T06:29:37;574.85;;;171.30;;
23181;SDS011;11759;51.282;6.642;2023-07-22T06:32:04;597.00;;;200.98;;
23181;SDS011;11759;51.282;6.642;2023-07-22T06:34:31;578.20;;;179.35;;
23181;SDS011;11759;51.282;6.642;2023-07-22T06:36:58;612.50;;;223.07;;
23181;SDS011;11759;51.282;6.642;2023-07-22T06:39:25;580.88;;;189.00;;
23181;SDS011;11759;51.282;6.642;2023-07-22T06:41:52;589.00;;;201.48;;
23181;SDS011;11759;51.282;6.642;2023-07-22T06:44:19;613.40;;;223.60;;
23181;SDS011;11759;51.282;6.642;2023-07-22T06:46:46;592.25;;;204.48;;
23181;SDS011;11759;51.282;6.642;2023-07-22T06:49:12;602.15;;;213.40;;
23181;SDS011;11759;51.282;6.642;2023-07-22T06:51:39;590.13;;;198.50;;
23181;SDS011;11759;51.282;6.642;2023-07-22T06:54:06;668.88;;;296.55;;
23181;SDS011;11759;51.282;6.642;2023-07-22T06:56:33;590.60;;;205.32;;
23181;SDS011;11759;51.282;6.642;2023-07-22T06:59:00;631.00;;;252.57;;
23181;SDS011;11759;51.282;6.642;2023-07-22T07:01:26;593.17;;;213.60;;
23181;SDS011;11759;51.282;6.642;2023-07-22T07:03:53;593.38;;;209.32;;
23181;SDS011;11759;51.282;6.642;2023-07-22T07:06:20;616.70;;;238.20;;
23181;SDS011;11759;51.282;6.642;2023-07-22T07:08:46;588.03;;;206.60;;
23181;SDS011;11759;51.282;6.642;2023-07-22T07:11:15;661.65;;;284.15;;
23181;SDS011;11759;51.282;6.642;2023-07-22T07:13:41;589.60;;;212.48;;
23181;SDS011;11759;51.282;6.642;2023-07-22T07:16:24;653.35;;;289.60;;
23181;SDS011;11759;51.282;6.642;2023-07-22T07:18:56;619.97;;;240.75;;
23181;SDS011;11759;51.282;6.642;2023-07-22T07:21:22;592.63;;;213.13;;
23181;SDS011;11759;51.282;6.642;2023-07-22T07:23:50;594.35;;;224.20;;
23181;SDS011;11759;51.282;6.642;2023-07-22T07:26:18;594.83;;;227.15;;
23181;SDS011;11759;51.282;6.642;2023-07-22T07:28:46;605.97;;;232.55;;
23181;SDS011;11759;51.282;6.642;2023-07-22T07:31:13;593.05;;;214.38;;
23181;SDS011;11759;51.282;6.642;2023-07-22T07:33:39;627.72;;;258.17;;
23181;SDS011;11759;51.282;6.642;2023-07-22T07:36:06;591.70;;;222.25;;
23181;SDS011;11759;51.282;6.642;2023-07-22T07:38:33;601.25;;;242.18;;
23181;SDS011;11759;51.282;6.642;2023-07-22T07:41:01;632.47;;;266.23;;
23181;SDS011;11759;51.282;6.642;2023-07-22T07:43:29;604.08;;;247.65;;
23181;SDS011;11759;51.282;6.642;2023-07-22T07:46:12;642.97;;;283.90;;
23181;SDS011;11759;51.282;6.642;2023-07-22T07:48:45;624.40;;;269.42;;
23181;SDS011;11759;51.282;6.642;2023-07-22T07:51:13;603.50;;;251.65;;
23181;SDS011;11759;51.282;6.642;2023-07-22T07:53:41;606.80;;;256.52;;
23181;SDS011;11759;51.282;6.642;2023-07-22T07:56:08;607.72;;;255.10;;
23181;SDS011;11759;51.282;6.642;2023-07-22T07:58:35;603.42;;;251.80;;
23181;SDS011;11759;51.282;6.642;2023-07-22T08:01:02;609.65;;;259.67;;
23181;SDS011;11759;51.282;6.642;2023-07-22T08:03:30;607.42;;;269.65;;
23181;SDS011;11759;51.282;6.642;2023-07-22T08:05:57;645.13;;;306.92;;
23181;SDS011;11759;51.282;6.642;2023-07-22T08:08:24;619.60;;;284.88;;
23181;SDS011;11759;51.282;6.642;2023-07-22T08:11:00;605.63;;;263.40;;
23181;SDS011;11759;51.282;6.642;2023-07-22T08:13:28;615.03;;;298.63;;
23181;SDS011;11759;51.282;6.642;2023-07-22T08:15:58;632.20;;;315.05;;
23181;SDS011;11759;51.282;6.642;2023-07-22T08:18:25;608.55;;;286.73;;
23181;SDS011;11759;51.282;6.642;2023-07-22T08:20:55;612.95;;;294.88;;
23181;SDS011;11759;51.282;6.642;2023-07-22T08:23:22;622.78;;;296.17;;
23181;SDS011;11759;51.282;6.642;2023-07-22T08:25:49;612.63;;;299.55;;
23181;SDS011;11759;51.282;6.642;2023-07-22T08:28:15;693.72;;;383.50;;
23181;SDS011;11759;51.282;6.642;2023-07-22T08:30:43;620.85;;;306.27;;
23181;SDS011;11759;51.282;6.642;2023-07-22T08:33:11;687.70;;;398.88;;
23181;SDS011;11759;51.282;6.642;2023-07-22T08:35:39;621.03;;;335.50;;
23181;SDS011;11759;51.282;6.642;2023-07-22T08:38:06;686.00;;;413.67;;
23181;SDS011;11759;51.282;6.642;2023-07-22T08:40:38;620.88;;;339.55;;
23181;SDS011;11759;51.282;6.642;2023-07-22T08:43:08;721.85;;;463.45;;
23181;SDS011;11759;51.282;6.642;2023-07-22T08:45:37;624.65;;;353.05;;
23181;SDS011;11759;51.282;6.642;2023-07-22T08:48:08;639.28;;;367.52;;
23181;SDS011;11759;51.282;6.642;2023-07-22T08:50:55;625.83;;;369.40;;
23181;SDS011;11759;51.282;6.642;2023-07-22T08:53:23;626.55;;;351.50;;
23181;SDS011;11759;51.282;6.642;2023-07-22T08:55:57;617.42;;;338.90;;
23181;SDS011;11759;51.282;6.642;2023-07-22T08:58:32;613.88;;;329.55;;
23181;SDS011;11759;51.282;6.642;2023-07-22T09:01:01;624.47;;;353.88;;
23181;SDS011;11759;51.282;6.642;2023-07-22T09:03:28;613.70;;;340.33;;
23181;SDS011;11759;51.282;6.642;2023-07-22T09:05:55;624.38;;;349.50;;
23181;SDS011;11759;51.282;6.642;2023-07-22T09:08:22;616.85;;;349.00;;
23181;SDS011;11759;51.282;6.642;2023-07-22T09:10:49;626.10;;;373.55;;
23181;SDS011;11759;51.282;6.642;2023-07-22T09:13:15;623.90;;;361.13;;
23181;SDS011;11759;51.282;6.642;2023-07-22T09:15:45;632.72;;;369.15;;
23181;SDS011;11759;51.282;6.642;2023-07-22T09:18:12;620.83;;;352.35;;
23181;SDS011;11759;51.282;6.642;2023-07-22T09:20:41;618.30;;;348.33;;
23181;SDS011;11759;51.282;6.642;2023-07-22T09:23:09;637.10;;;376.65;;
23181;SDS011;11759;51.282;6.642;2023-07-22T09:25:40;628.85;;;369.65;;
23181;SDS011;11759;51.282;6.642;2023-07-22T09:28:08;647.22;;;379.98;;
23181;SDS011;11759;51.282;6.642;2023-07-22T09:30:36;620.50;;;353.98;;
23181;SDS011;11759;51.282;6.642;2023-07-22T09:33:06;629.03;;;366.95;;
23181;SDS011;11759;51.282;6.642;2023-07-22T09:38:11;622.30;;;352.63;;
23181;SDS011;11759;51.282;6.642;2023-07-22T09:40:39;619.10;;;346.10;;
23181;SDS011;11759;51.282;6.642;2023-07-22T09:43:09;631.25;;;349.50;;
23181;SDS011;11759;51.282;6.642;2023-07-22T09:45:36;602.70;;;313.73;;
23181;SDS011;11759;51.282;6.642;2023-07-22T09:48:04;605.17;;;320.02;;
23181;SDS011;11759;51.282;6.642;2023-07-22T09:50:32;600.28;;;325.98;;
23181;SDS011;11759;51.282;6.642;2023-07-22T09:52:59;615.15;;;351.77;;
23181;SDS011;11759;51.282;6.642;2023-07-22T09:55:29;630.70;;;359.02;;
23181;SDS011;11759;51.282;6.642;2023-07-22T09:57:57;630.33;;;385.05;;
23181;SDS011;11759;51.282;6.642;2023-07-22T10:00:27;668.33;;;416.65;;
23181;SDS011;11759;51.282;6.642;2023-07-22T10:02:55;616.47;;;365.73;;
23181;SDS011;11759;51.282;6.642;2023-07-22T10:05:24;640.13;;;382.60;;
23181;SDS011;11759;51.282;6.642;2023-07-22T10:07:52;606.38;;;353.33;;
23181;SDS011;11759;51.282;6.642;2023-07-22T10:10:23;672.55;;;429.25;;
23181;SDS011;11759;51.282;6.642;2023-07-22T10:15:19;656.40;;;404.77;;
23181;SDS011;11759;51.282;6.642;2023-07-22T10:17:46;611.60;;;361.13;;
23181;SDS011;11759;51.282;6.642;2023-07-22T10:20:13;605.22;;;355.45;;
23181;SDS011;11759;51.282;6.642;2023-07-22T10:22:43;591.15;;;295.17;;
23181;SDS011;11759;51.282;6.642;2023-07-22T10:25:20;592.00;;;321.63;;
23181;SDS011;11759;51.282;6.642;2023-07-22T10:27:48;586.75;;;326.48;;
23181;SDS011;11759;51.282;6.642;2023-07-22T10:30:16;610.83;;;372.25;;
23181;SDS011;11759;51.282;6.642;2023-07-22T10:32:45;577.50;;;305.17;;
23181;SDS011;11759;51.282;6.642;2023-07-22T10:37:56;590.08;;;375.67;;
23181;SDS011;11759;51.282;6.642;2023-07-22T10:40:35;588.05;;;353.83;;
23181;SDS011;11759;51.282;6.642;2023-07-22T10:43:11;601.05;;;363.33;;
23181;SDS011;11759;51.282;6.642;2023-07-22T10:45:41;591.05;;;377.58;;
23181;SDS011;11759;51.282;6.642;2023-07-22T10:48:09;591.03;;;388.83;;
23181;SDS011;11759;51.282;6.642;2023-07-22T10:50:39;595.75;;;397.73;;
23181;SDS011;11759;51.282;6.642;2023-07-22T10:58:32;619.20;;;423.08;;
23181;SDS011;11759;51.282;6.642;2023-07-22T11:12:03;597.05;;;414.13;;
23181;SDS011;11759;51.282;6.642;2023-07-22T11:14:44;598.42;;;412.83;;
23181;SDS011;11759;51.282;6.642;2023-07-22T11:17:37;594.72;;;405.50;;
23181;SDS011;11759;51.282;6.642;2023-07-22T11:20:04;607.75;;;424.95;;
23181;SDS011;11759;51.282;6.642;2023-07-22T11:22:31;609.63;;;425.13;;
23181;SDS011;11759;51.282;6.642;2023-07-22T11:24:59;600.22;;;419.60;;
23181;SDS011;11759;51.282;6.642;2023-07-22T11:27:26;661.20;;;499.77;;
23181;SDS011;11759;51.282;6.642;2023-07-22T11:29:53;591.47;;;407.13;;
23181;SDS011;11759;51.282;6.642;2023-07-22T11:32:20;647.30;;;466.88;;
23181;SDS011;11759;51.282;6.642;2023-07-22T11:34:53;587.00;;;415.63;;
23181;SDS011;11759;51.282;6.642;2023-07-22T11:37:19;676.88;;;602.65;;
23181;SDS011;11759;51.282;6.642;2023-07-22T11:39:46;651.25;;;581.33;;
23181;SDS011;11759;51.282;6.642;2023-07-22T11:42:13;714.47;;;641.05;;
23181;SDS011;11759;51.282;6.642;2023-07-22T11:44:40;703.40;;;631.58;;
23181;SDS011;11759;51.282;6.642;2023-07-22T11:47:07;677.03;;;605.63;;
23181;SDS011;11759;51.282;6.642;2023-07-22T11:49:35;666.67;;;596.60;;
23181;SDS011;11759;51.282;6.642;2023-07-22T11:52:07;682.88;;;612.47;;
23181;SDS011;11759;51.282;6.642;2023-07-22T11:54:38;739.38;;;665.70;;
23181;SDS011;11759;51.282;6.642;2023-07-22T11:59:37;631.80;;;562.42;;
23181;SDS011;11759;51.282;6.642;2023-07-22T12:02:05;625.83;;;555.95;;
23181;SDS011;11759;51.282;6.642;2023-07-22T12:04:32;622.17;;;552.33;;
23181;SDS011;11759;51.282;6.642;2023-07-22T12:07:01;630.08;;;545.90;;
23181;SDS011;11759;51.282;6.642;2023-07-22T12:09:30;600.05;;;451.95;;
23181;SDS011;11759;51.282;6.642;2023-07-22T12:12:00;618.25;;;473.65;;
23181;SDS011;11759;51.282;6.642;2023-07-22T12:14:34;604.10;;;476.80;;
23181;SDS011;11759;51.282;6.642;2023-07-22T12:17:02;657.10;;;562.58;;
23181;SDS011;11759;51.282;6.642;2023-07-22T12:19:28;618.50;;;535.53;;
23181;SDS011;11759;51.282;6.642;2023-07-22T12:21:56;701.92;;;584.85;;
23181;SDS011;11759;51.282;6.642;2023-07-22T12:24:23;611.67;;;530.33;;
23181;SDS011;11759;51.282;6.642;2023-07-22T12:26:50;704.55;;;629.90;;
23181;SDS011;11759;51.282;6.642;2023-07-22T12:29:16;673.22;;;602.55;;
23181;SDS011;11759;51.282;6.642;2023-07-22T12:31:43;685.65;;;614.58;;
23181;SDS011;11759;51.282;6.642;2023-07-22T12:34:10;694.10;;;622.42;;
23181;SDS011;11759;51.282;6.642;2023-07-22T12:36:37;714.72;;;643.05;;
23181;SDS011;11759;51.282;6.642;2023-07-22T12:39:04;752.05;;;676.60;;
23181;SDS011;11759;51.282;6.642;2023-07-22T12:41:31;675.53;;;604.85;;
23181;SDS011;11759;51.282;6.642;2023-07-22T12:43:58;745.42;;;668.38;;
23181;SDS011;11759;51.282;6.642;2023-07-22T12:46:25;693.65;;;621.88;;
23181;SDS011;11759;51.282;6.642;2023-07-22T12:48:51;704.55;;;630.70;;
23181;SDS011;11759;51.282;6.642;2023-07-22T12:51:18;697.72;;;625.38;;
23181;SDS011;11759;51.282;6.642;2023-07-22T12:53:44;679.30;;;608.70;;
23181;SDS011;11759;51.282;6.642;2023-07-22T12:56:11;714.42;;;641.80;;
23181;SDS011;11759;51.282;6.642;2023-07-22T12:58:38;677.67;;;607.38;;
23181;SDS011;11759;51.282;6.642;2023-07-22T13:01:04;670.42;;;599.17;;
23181;SDS011;11759;51.282;6.642;2023-07-22T13:03:31;652.28;;;582.50;;
23181;SDS011;11759;51.282;6.642;2023-07-22T13:05:58;634.97;;;565.50;;
23181;SDS011;11759;51.282;6.642;2023-07-22T13:08:24;678.95;;;604.25;;
23181;SDS011;11759;51.282;6.642;2023-07-22T13:10:51;620.90;;;540.85;;
23181;SDS011;11759;51.282;6.642;2023-07-22T13:13:18;642.45;;;569.00;;
23181;SDS011;11759;51.282;6.642;2023-07-22T13:15:45;655.42;;;585.33;;
23181;SDS011;11759;51.282;6.642;2023-07-22T13:18:12;659.88;;;588.00;;
23181;SDS011;11759;51.282;6.642;2023-07-22T13:20:40;627.63;;;556.75;;
23181;SDS011;11759;51.282;6.642;2023-07-22T13:23:07;708.13;;;631.25;;
23181;SDS011;11759;51.282;6.642;2023-07-22T13:25:33;629.30;;;557.35;;
23181;SDS011;11759;51.282;6.642;2023-07-22T13:28:00;635.70;;;564.92;;
23181;SDS011;11759;51.282;6.642;2023-07-22T13:30:28;634.33;;;558.28;;
23181;SDS011;11759;51.282;6.642;2023-07-22T13:32:55;624.80;;;554.75;;
23181;SDS011;11759;51.282;6.642;2023-07-22T13:35:22;657.53;;;560.20;;
23181;SDS011;11759;51.282;6.642;2023-07-22T13:37:49;629.00;;;525.22;;
23181;SDS011;11759;51.282;6.642;2023-07-22T13:40:17;689.75;;;565.60;;
23181;SDS011;11759;51.282;6.642;2023-07-22T13:42:44;606.63;;;464.08;;
23181;SDS011;11759;51.282;6.642;2023-07-22T13:45:11;685.70;;;552.65;;
23181;SDS011;11759;51.282;6.642;2023-07-22T13:47:38;603.60;;;440.27;;
23181;SDS011;11759;51.282;6.642;2023-07-22T13:50:05;636.85;;;480.55;;
23181;SDS011;11759;51.282;6.642;2023-07-22T13:52:32;601.15;;;452.38;;
23181;SDS011;11759;51.282;6.642;2023-07-22T13:54:58;610.58;;;472.63;;
23181;SDS011;11759;51.282;6.642;2023-07-22T13:57:25;617.55;;;498.35;;
23181;SDS011;11759;51.282;6.642;2023-07-22T13:59:54;632.67;;;508.25;;
23181;SDS011;11759;51.282;6.642;2023-07-22T14:02:20;614.63;;;500.27;;
23181;SDS011;11759;51.282;6.642;2023-07-22T14:04:48;626.45;;;544.65;;
23181;SDS011;11759;51.282;6.642;2023-07-22T14:07:14;632.70;;;560.17;;
23181;SDS011;11759;51.282;6.642;2023-07-22T14:09:41;616.85;;;523.05;;
23181;SDS011;11759;51.282;6.642;2023-07-22T14:12:08;653.63;;;556.78;;
23181;SDS011;11759;51.282;6.642;2023-07-22T14:14:35;608.30;;;484.10;;
23181;SDS011;11759;51.282;6.642;2023-07-22T14:17:01;626.72;;;512.92;;
23181;SDS011;11759;51.282;6.642;2023-07-22T14:19:28;616.90;;;514.03;;
23181;SDS011;11759;51.282;6.642;2023-07-22T14:21:55;663.75;;;557.83;;
23181;SDS011;11759;51.282;6.642;2023-07-22T14:24:23;628.83;;;525.47;;
23181;SDS011;11759;51.282;6.642;2023-07-22T14:26:50;652.30;;;565.72;;
23181;SDS011;11759;51.282;6.642;2023-07-22T14:29:17;624.25;;;540.03;;